createdAt,value
2022-08-26T17:48:38.146Z,124.68
2022-08-26T17:51:11.085Z,146.98
2022-08-26T17:53:39.878Z,271.35
2022-08-26T17:56:09.561Z,158.50
2022-08-26T17:58:39.127Z,119.28
2022-08-26T18:01:08.739Z,103.53
2022-08-26T18:03:39.282Z,148.13
2022-08-26T18:06:10.604Z,131.82
2022-08-26T18:08:40.340Z,113.45
2022-08-26T18:11:10.230Z,91.38
2022-08-26T18:13:39.036Z,192.35
2022-08-26T18:16:16.586Z,217.60
2022-08-26T18:18:47.595Z,262.30
2022-08-26T18:21:17.116Z,248.65
2022-08-26T18:23:46.203Z,187.70
2022-08-26T18:26:17.572Z,171.82
2022-08-26T18:28:46.355Z,197.57
2022-08-26T18:31:15.299Z,181.88
2022-08-26T18:33:44.403Z,117.47
2022-08-26T18:36:22.608Z,101.57
2022-08-26T18:38:51.680Z,99.18
2022-08-26T18:41:21.551Z,87.07
2022-08-26T18:43:50.801Z,67.78
2022-08-26T18:46:20.455Z,59.03
2022-08-26T18:48:50.909Z,49.08
2022-08-26T18:51:22.629Z,41.87
2022-08-26T18:53:51.655Z,32.92
2022-08-26T18:56:20.548Z,31.58
2022-08-26T18:58:49.466Z,37.33
2022-08-26T19:01:18.253Z,39.17
2022-08-26T19:03:47.491Z,37.92
2022-08-26T19:06:17.272Z,36.60
2022-08-26T19:08:49.751Z,23.30
2022-08-26T19:11:31.333Z,16.25
2022-08-26T19:16:30.659Z,16.98
2022-08-26T19:19:00.975Z,11.35
2022-08-26T19:21:30.624Z,7.90
2022-08-26T19:24:02.366Z,6.43
2022-08-26T19:26:31.831Z,6.95
2022-08-26T19:29:00.499Z,26.85
2022-08-26T19:31:29.285Z,19.27
2022-08-26T19:33:58.166Z,73.65
2022-08-26T19:36:28.255Z,61.60
2022-08-26T19:38:57.029Z,66.07
2022-08-26T19:41:36.937Z,80.15
2022-08-26T19:44:07.680Z,65.05
2022-08-26T19:49:10.407Z,69.88
2022-08-26T19:51:39.017Z,57.58
2022-08-26T19:54:07.678Z,46.53
2022-08-26T19:56:37.676Z,39.17
2022-08-26T19:59:06.336Z,70.80
2022-08-26T20:02:01.408Z,89.60
2022-08-26T20:04:30.679Z,53.80
2022-08-26T20:07:00.590Z,87.85
2022-08-26T20:09:29.824Z,106.03
2022-08-26T20:11:59.932Z,126.65
2022-08-26T20:14:29.562Z,128.32
2022-08-26T20:16:58.397Z,130.45
2022-08-26T20:19:45.200Z,112.85
2022-08-26T20:22:14.340Z,80.18
2022-08-26T20:24:43.019Z,63.70
2022-08-26T20:27:37.789Z,47.58
2022-08-26T20:30:08.411Z,33.42
2022-08-26T20:32:37.410Z,27.20
2022-08-26T20:35:07.186Z,20.63
2022-08-26T20:37:36.075Z,19.00
2022-08-26T20:40:06.521Z,17.25
2022-08-26T20:42:36.908Z,15.63
2022-08-26T20:45:07.211Z,16.42
2022-08-26T20:47:36.235Z,15.13
2022-08-26T20:50:05.104Z,14.88
2022-08-26T20:52:33.723Z,12.55
2022-08-26T20:55:02.371Z,11.10
2022-08-26T20:57:51.446Z,8.55
2022-08-26T21:00:22.782Z,7.95
2022-08-26T21:02:56.314Z,8.00
2022-08-26T21:05:25.060Z,7.88
2022-08-26T21:07:53.743Z,7.50
2022-08-26T21:10:23.009Z,7.50
2022-08-26T21:13:12.358Z,7.65
2022-08-26T21:15:40.970Z,7.95
2022-08-26T21:18:09.641Z,7.53
2022-08-26T21:20:38.853Z,7.45
2022-08-26T21:23:07.809Z,7.32
2022-08-26T21:25:36.466Z,6.25
2022-08-26T21:28:05.298Z,7.13
2022-08-26T21:30:38.505Z,6.22
2022-08-26T21:33:07.463Z,6.78
2022-08-26T21:35:35.996Z,6.78
2022-08-26T21:38:04.619Z,6.30
2022-08-26T21:40:33.261Z,6.07
2022-08-26T21:43:01.979Z,6.22
2022-08-26T21:45:30.556Z,5.53
2022-08-26T21:48:00.785Z,5.53
2022-08-26T21:50:29.647Z,6.80
2022-08-26T21:52:58.189Z,6.30
2022-08-26T21:55:27.595Z,5.90
2022-08-26T21:57:56.258Z,6.60
2022-08-26T22:00:26.122Z,5.88
2022-08-26T22:02:54.716Z,5.65
2022-08-26T22:05:24.723Z,5.13
2022-08-26T22:07:53.314Z,6.00
2022-08-26T22:10:22.082Z,5.43
2022-08-26T22:12:50.710Z,6.05
2022-08-26T22:15:22.982Z,5.47
2022-08-26T22:17:51.605Z,5.60
2022-08-26T22:20:20.343Z,6.68
2022-08-26T22:22:50.287Z,6.43
2022-08-26T22:25:37.690Z,5.20
2022-08-26T22:28:06.851Z,5.38
2022-08-26T22:30:36.366Z,6.32
2022-08-26T22:33:05.744Z,5.45
2022-08-26T22:35:34.521Z,5.57
2022-08-26T22:38:04.480Z,5.78
2022-08-26T22:40:55.171Z,5.57
2022-08-26T22:43:24.265Z,5.78
2022-08-26T22:45:54.079Z,5.78
2022-08-26T22:48:23.708Z,6.18
2022-08-26T22:50:55.243Z,5.82
2022-08-26T22:53:27.221Z,6.20
2022-08-26T22:55:55.866Z,5.85
2022-08-26T22:58:30.631Z,6.85
2022-08-26T23:00:59.936Z,7.22
2022-08-26T23:03:29.247Z,6.65
2022-08-26T23:05:58.215Z,7.22
2022-08-26T23:08:28.679Z,6.97
2022-08-26T23:10:57.434Z,6.85
2022-08-26T23:13:25.989Z,7.47
2022-08-26T23:16:01.592Z,7.43
2022-08-26T23:18:30.400Z,8.10
2022-08-26T23:20:59.191Z,7.85
2022-08-26T23:23:29.273Z,7.97
2022-08-26T23:25:58.644Z,7.60
2022-08-26T23:28:27.496Z,8.50
2022-08-26T23:30:56.198Z,8.55
2022-08-26T23:33:45.747Z,7.80
2022-08-26T23:36:17.889Z,9.00
2022-08-26T23:38:52.763Z,21.83
2022-08-26T23:41:22.011Z,15.40
2022-08-26T23:43:50.667Z,29.73
2022-08-26T23:46:19.381Z,41.72
2022-08-26T23:48:48.084Z,118.40
2022-08-26T23:51:34.099Z,148.77
2022-08-26T23:54:04.086Z,119.30
2022-08-26T23:56:32.796Z,121.03
2022-08-26T23:59:01.451Z,71.32
